createdAt,value
2017-08-31T00:04:44.972Z,9.93
2017-08-31T00:09:48.203Z,6.23
2017-08-31T00:14:51.408Z,8.00
2017-08-31T00:19:54.585Z,6.80
2017-08-31T00:24:57.787Z,6.20
2017-08-31T00:30:00.976Z,7.33
2017-08-31T00:35:04.175Z,9.50
2017-08-31T00:40:07.360Z,7.27
2017-08-31T00:45:10.607Z,10.60
2017-08-31T00:50:13.821Z,7.83
2017-08-31T00:55:16.992Z,7.27
2017-08-31T01:00:20.201Z,9.40
2017-08-31T01:05:23.412Z,8.47
2017-08-31T01:10:26.609Z,8.53
2017-08-31T01:15:29.766Z,13.80
2017-08-31T01:20:32.944Z,8.53
2017-08-31T01:25:36.401Z,6.93
2017-08-31T01:30:39.599Z,6.20
2017-08-31T01:35:42.795Z,11.73
2017-08-31T01:40:45.985Z,7.50
2017-08-31T01:45:49.159Z,7.80
2017-08-31T01:50:52.375Z,11.40
2017-08-31T01:55:55.575Z,12.60
2017-08-31T02:00:58.827Z,4.10
2017-08-31T02:06:02.011Z,5.87
2017-08-31T02:11:05.234Z,10.03
2017-08-31T02:16:08.576Z,9.50
2017-08-31T02:21:11.782Z,6.50
2017-08-31T02:26:14.955Z,8.20
2017-08-31T02:31:18.160Z,13.80
2017-08-31T02:36:21.347Z,10.70
2017-08-31T02:41:24.523Z,10.63
2017-08-31T02:46:27.732Z,10.33
2017-08-31T02:51:30.937Z,9.27
2017-08-31T02:56:34.170Z,9.13
2017-08-31T03:01:37.376Z,9.33
2017-08-31T03:06:40.562Z,13.60
2017-08-31T03:11:43.826Z,11.37
2017-08-31T03:16:47.031Z,10.63
2017-08-31T03:21:50.249Z,8.87
2017-08-31T03:26:53.448Z,10.50
2017-08-31T03:31:56.663Z,11.63
2017-08-31T03:36:59.845Z,9.77
2017-08-31T03:42:03.038Z,7.40
2017-08-31T03:47:06.275Z,7.93
2017-08-31T03:52:09.535Z,8.10
2017-08-31T03:57:12.740Z,7.67
2017-08-31T04:02:16.001Z,8.07
2017-08-31T04:07:19.209Z,9.63
2017-08-31T04:12:22.421Z,10.50
2017-08-31T04:17:25.620Z,8.20
2017-08-31T04:22:28.884Z,12.50
2017-08-31T04:27:32.078Z,15.43
2017-08-31T04:32:35.287Z,9.83
2017-08-31T04:37:38.515Z,11.30
2017-08-31T04:42:41.729Z,10.17
2017-08-31T04:47:44.923Z,9.10
2017-08-31T04:52:48.134Z,12.73
2017-08-31T04:57:51.352Z,10.90
2017-08-31T05:02:54.552Z,10.17
2017-08-31T05:07:57.757Z,13.20
2017-08-31T05:13:00.959Z,13.07
2017-08-31T05:18:04.151Z,8.47
2017-08-31T05:23:07.352Z,16.40
2017-08-31T05:28:10.762Z,12.70
2017-08-31T05:33:13.984Z,10.57
2017-08-31T05:38:17.240Z,13.00
2017-08-31T05:43:20.413Z,9.10
2017-08-31T05:48:23.606Z,12.20
2017-08-31T05:53:26.842Z,12.67
2017-08-31T05:58:30.029Z,12.80
2017-08-31T06:03:33.219Z,11.70
2017-08-31T06:08:36.416Z,13.23
2017-08-31T06:13:39.610Z,14.47
2017-08-31T06:18:42.797Z,10.03
2017-08-31T06:23:45.997Z,12.20
2017-08-31T06:28:49.290Z,10.73
2017-08-31T06:33:52.500Z,12.20
2017-08-31T06:38:55.706Z,11.23
2017-08-31T06:43:58.910Z,15.60
2017-08-31T06:49:02.109Z,9.70
2017-08-31T06:54:05.306Z,10.80
2017-08-31T06:59:08.568Z,12.67
2017-08-31T07:04:11.764Z,9.90
2017-08-31T07:09:14.971Z,12.87
2017-08-31T07:14:18.184Z,10.10
2017-08-31T07:19:21.386Z,11.80
2017-08-31T07:24:24.608Z,10.83
2017-08-31T07:29:27.887Z,9.97
2017-08-31T07:34:31.106Z,8.70
2017-08-31T07:39:34.314Z,11.87
2017-08-31T07:44:37.526Z,14.10
2017-08-31T07:49:40.740Z,11.13
2017-08-31T07:54:44.025Z,9.60
2017-08-31T07:59:47.232Z,11.33
2017-08-31T08:04:50.511Z,7.67
2017-08-31T08:09:53.734Z,5.03
2017-08-31T08:14:56.989Z,2.33
2017-08-31T08:20:00.174Z,1.00
2017-08-31T08:25:03.314Z,1.30
2017-08-31T08:30:06.491Z,0.80
2017-08-31T08:35:09.664Z,0.60
2017-08-31T08:40:12.859Z,3.23
2017-08-31T08:45:16.026Z,1.10
2017-08-31T08:50:19.229Z,1.43
2017-08-31T09:00:31.901Z,1.60
2017-08-31T09:05:35.097Z,1.60
2017-08-31T09:10:38.334Z,1.77
2017-08-31T09:15:41.552Z,1.20
2017-08-31T09:20:44.745Z,2.50
2017-08-31T09:25:47.938Z,1.33
2017-08-31T09:30:51.177Z,1.73
2017-08-31T09:35:54.391Z,1.17
2017-08-31T09:40:57.598Z,1.40
2017-08-31T09:46:00.869Z,0.90
2017-08-31T09:51:04.080Z,1.03
2017-08-31T09:56:07.251Z,1.50
2017-08-31T10:01:10.461Z,2.03
2017-08-31T10:06:13.674Z,3.00
2017-08-31T10:11:16.884Z,6.90
2017-08-31T10:16:20.145Z,5.10
2017-08-31T10:21:23.319Z,3.70
2017-08-31T10:26:26.504Z,3.50
2017-08-31T10:31:29.732Z,3.40
2017-08-31T10:36:32.941Z,3.30
2017-08-31T10:41:36.155Z,3.03
2017-08-31T10:46:39.367Z,9.63
2017-08-31T10:51:42.571Z,2.50
2017-08-31T10:56:45.767Z,2.77
2017-08-31T11:01:48.977Z,2.70
2017-08-31T11:06:53.102Z,2.70
2017-08-31T11:11:56.296Z,2.20
2017-08-31T11:16:59.478Z,1.87
2017-08-31T11:22:02.698Z,1.67
2017-08-31T11:27:05.914Z,2.20
2017-08-31T11:32:09.211Z,3.10
2017-08-31T11:37:12.358Z,4.00
2017-08-31T11:42:15.594Z,5.27
2017-08-31T11:47:18.809Z,5.73
2017-08-31T11:52:21.990Z,6.67
2017-08-31T11:57:25.197Z,6.03
2017-08-31T12:02:28.409Z,5.57
2017-08-31T12:07:31.626Z,4.20
2017-08-31T12:12:34.845Z,3.87
2017-08-31T12:17:38.045Z,4.60
2017-08-31T12:22:41.267Z,4.30
2017-08-31T12:27:44.464Z,3.97
2017-08-31T12:32:47.665Z,4.40
2017-08-31T12:37:50.884Z,4.50
2017-08-31T12:42:54.081Z,4.50
2017-08-31T12:47:57.237Z,3.60
2017-08-31T12:53:00.483Z,2.07
2017-08-31T12:58:03.702Z,2.17
2017-08-31T13:03:06.909Z,2.63
2017-08-31T13:08:10.125Z,1.77
2017-08-31T13:13:13.333Z,2.57
2017-08-31T13:18:16.534Z,1.60
2017-08-31T13:23:19.747Z,2.00
2017-08-31T13:28:22.952Z,2.30
2017-08-31T13:33:26.155Z,2.47
2017-08-31T13:38:29.371Z,4.10
2017-08-31T13:43:32.584Z,3.00
2017-08-31T13:48:35.885Z,1.93
2017-08-31T13:53:39.046Z,2.13
2017-08-31T13:58:42.277Z,2.40
2017-08-31T14:03:45.487Z,4.90
2017-08-31T14:08:48.672Z,2.03
2017-08-31T14:13:51.928Z,3.40
2017-08-31T14:18:55.284Z,4.67
2017-08-31T14:23:58.490Z,3.10
2017-08-31T14:29:01.725Z,5.33
2017-08-31T14:34:04.940Z,2.53
2017-08-31T14:39:08.160Z,1.53
2017-08-31T14:44:11.386Z,1.30
2017-08-31T14:49:14.597Z,2.10
2017-08-31T14:54:17.805Z,2.83
2017-08-31T14:59:21.018Z,3.27
2017-08-31T15:04:24.217Z,4.23
2017-08-31T15:09:27.602Z,1.53
2017-08-31T15:14:30.799Z,1.37
2017-08-31T15:19:33.994Z,0.90
2017-08-31T15:24:37.227Z,1.07
2017-08-31T15:29:42.224Z,1.70
2017-08-31T15:34:48.017Z,3.20
2017-08-31T15:39:51.250Z,1.67
2017-08-31T15:44:54.457Z,4.23
2017-08-31T15:49:57.753Z,2.67
2017-08-31T15:55:00.992Z,2.60
2017-08-31T16:00:04.214Z,2.90
2017-08-31T16:05:07.420Z,4.03
2017-08-31T16:10:10.619Z,2.17
2017-08-31T16:15:13.849Z,2.40
2017-08-31T16:20:17.087Z,2.97
2017-08-31T16:25:20.294Z,2.97
2017-08-31T16:30:23.545Z,4.43
2017-08-31T16:35:26.768Z,3.40
2017-08-31T16:40:30.006Z,3.83
2017-08-31T16:45:33.237Z,3.03
2017-08-31T16:50:36.466Z,2.90
2017-08-31T16:55:39.702Z,1.97
2017-08-31T17:00:43.003Z,4.00
2017-08-31T17:05:46.212Z,1.87
2017-08-31T17:10:49.444Z,2.10
2017-08-31T17:15:52.642Z,2.10
2017-08-31T17:20:55.867Z,2.00
2017-08-31T17:25:59.061Z,1.80
2017-08-31T17:31:02.271Z,3.23
2017-08-31T17:36:05.490Z,3.70
2017-08-31T17:41:08.710Z,3.20
2017-08-31T17:46:12.017Z,2.63
2017-08-31T17:51:15.266Z,3.80
2017-08-31T17:56:18.480Z,3.73
2017-08-31T18:01:21.704Z,2.60
2017-08-31T18:06:24.963Z,2.97
2017-08-31T18:11:28.231Z,3.87
2017-08-31T18:16:31.500Z,2.50
2017-08-31T18:21:34.729Z,4.47
2017-08-31T18:26:37.951Z,2.97
2017-08-31T18:31:41.196Z,3.07
2017-08-31T18:36:44.407Z,3.47
2017-08-31T18:41:47.685Z,7.00
2017-08-31T18:46:50.917Z,5.63
2017-08-31T18:51:54.175Z,3.23
2017-08-31T18:56:57.411Z,8.60
2017-08-31T19:02:00.646Z,5.97
2017-08-31T19:07:03.843Z,8.07
2017-08-31T19:12:07.050Z,4.33
2017-08-31T19:17:10.309Z,4.20
2017-08-31T19:22:13.518Z,3.47
2017-08-31T19:27:16.689Z,3.55
2017-08-31T19:32:19.910Z,4.10
2017-08-31T19:37:23.400Z,3.90
2017-08-31T19:42:26.609Z,8.47
2017-08-31T19:47:29.985Z,3.95
2017-08-31T19:52:33.241Z,6.13
2017-08-31T19:57:36.474Z,6.40
2017-08-31T20:02:39.684Z,6.30
2017-08-31T20:07:42.960Z,8.43
2017-08-31T20:12:46.192Z,4.60
2017-08-31T20:17:49.400Z,5.27
2017-08-31T20:22:52.644Z,6.90
2017-08-31T20:27:55.895Z,4.43
2017-08-31T20:32:59.092Z,5.87
2017-08-31T20:38:02.368Z,5.70
2017-08-31T20:43:05.574Z,4.63
2017-08-31T20:48:08.789Z,3.37
2017-08-31T20:53:12.100Z,7.53
2017-08-31T20:58:15.350Z,6.53
2017-08-31T21:03:18.524Z,8.07
2017-08-31T21:08:21.777Z,5.60
2017-08-31T21:13:24.994Z,4.90
2017-08-31T21:18:28.255Z,4.70
2017-08-31T21:23:31.464Z,6.80
2017-08-31T21:28:34.675Z,4.60
2017-08-31T21:33:37.850Z,9.60
2017-08-31T21:38:41.032Z,3.80
2017-08-31T21:43:44.203Z,4.13
2017-08-31T21:48:47.545Z,3.37
2017-08-31T21:53:50.743Z,4.17
2017-08-31T21:58:53.924Z,5.07
2017-08-31T22:03:57.132Z,6.80
2017-08-31T22:09:00.328Z,5.10
2017-08-31T22:14:03.572Z,6.00
2017-08-31T22:19:06.805Z,9.25
2017-08-31T22:24:10.004Z,6.70
2017-08-31T22:29:13.201Z,5.67
2017-08-31T22:34:16.427Z,4.80
2017-08-31T22:39:19.620Z,6.40
2017-08-31T22:44:22.869Z,4.50
2017-08-31T22:49:26.084Z,6.20
2017-08-31T22:54:29.310Z,9.80
2017-08-31T22:59:32.550Z,5.60
2017-08-31T23:04:35.716Z,5.57
2017-08-31T23:09:38.883Z,6.43
2017-08-31T23:14:42.039Z,5.70
2017-08-31T23:19:45.261Z,6.93
2017-08-31T23:24:48.436Z,6.40
2017-08-31T23:29:51.628Z,6.27
2017-08-31T23:34:54.774Z,4.73
2017-08-31T23:39:57.946Z,6.83
2017-08-31T23:45:01.112Z,7.20
2017-08-31T23:50:04.341Z,6.80
2017-08-31T23:55:07.654Z,5.70
